Time;durP1;ratioP1;P1;durP2;ratioP2;P2;SDS_P1;SDS_P2;PMS_P1;PMS_P2;Temp;Humidity;BMP_temperature;BMP_pressure;BME280_temperature;BME280_humidity;BME280_pressure;Samples;Min_cycle;Max_cycle;Signal;HPM_P1;HPM_P2
2022/11/21 00:01:51;;;;;;;0.00;0.00;;;6.20;99.90;;;;;;5054247;28;20173;-65
2022/11/21 00:04:17;;;;;;;0.00;0.00;;;6.30;99.90;;;;;;5055475;28;20239;-65
2022/11/21 00:06:42;;;;;;;0.00;0.00;;;6.30;99.90;;;;;;5055723;28;20702;-65
2022/11/21 00:09:08;;;;;;;0.00;0.00;;;6.20;99.90;;;;;;5055235;28;20173;-65
2022/11/21 00:11:33;;;;;;;0.00;0.00;;;6.20;99.90;;;;;;5055500;28;20188;-65
2022/11/21 00:13:59;;;;;;;0.00;0.00;;;6.20;99.90;;;;;;5055133;28;20325;-65
2022/11/21 00:16:25;;;;;;;0.00;0.00;;;6.20;99.90;;;;;;5055348;28;20231;-65
2022/11/21 00:18:50;;;;;;;0.00;0.00;;;6.20;99.90;;;;;;5055231;28;20189;-65
2022/11/21 00:21:17;;;;;;;0.00;0.00;;;6.20;99.90;;;;;;5055153;28;20182;-64
2022/11/21 00:23:44;;;;;;;0.00;0.00;;;6.20;99.90;;;;;;5053836;28;20181;-65
2022/11/21 00:26:11;;;;;;;0.00;0.00;;;6.10;99.90;;;;;;5054809;28;20228;-65
2022/11/21 00:28:37;;;;;;;0.00;0.00;;;6.10;99.90;;;;;;5055120;28;20181;-65
2022/11/21 00:31:04;;;;;;;0.00;0.00;;;6.10;99.90;;;;;;5054868;28;20177;-64
2022/11/21 00:33:30;;;;;;;0.00;0.00;;;6.10;99.90;;;;;;5054867;28;20659;-65
2022/11/21 00:35:56;;;;;;;0.00;0.00;;;6.10;99.90;;;;;;5054490;28;20193;-64
2022/11/21 00:38:23;;;;;;;0.00;0.00;;;6.10;99.90;;;;;;5054660;28;20747;-65
2022/11/21 00:40:49;;;;;;;0.00;0.00;;;6.10;99.90;;;;;;5054322;28;20177;-64
2022/11/21 00:43:14;;;;;;;0.00;0.00;;;6.10;99.90;;;;;;5054218;28;20661;-65
2022/11/21 00:45:40;;;;;;;0.00;0.00;;;6.00;99.90;;;;;;5054507;28;20216;-66
2022/11/21 00:48:06;;;;;;;0.00;0.00;;;6.10;99.90;;;;;;5053609;28;20213;-65
2022/11/21 00:50:32;;;;;;;0.00;0.00;;;6.00;99.90;;;;;;5054646;28;20178;-66
2022/11/21 00:52:58;;;;;;;0.00;0.00;;;6.00;99.90;;;;;;5054531;28;20174;-66
2022/11/21 00:55:24;;;;;;;0.00;0.00;;;6.00;99.90;;;;;;5054620;28;20200;-66
2022/11/21 00:57:50;;;;;;;0.00;0.00;;;6.00;99.90;;;;;;5054447;28;20192;-66
2022/11/21 01:00:16;;;;;;;0.00;0.00;;;5.90;99.90;;;;;;5054453;28;20632;-65
2022/11/21 01:02:42;;;;;;;0.00;0.00;;;5.90;99.90;;;;;;5054264;28;20201;-66
2022/11/21 01:05:08;;;;;;;0.00;0.00;;;5.90;99.90;;;;;;5054066;28;20260;-66
2022/11/21 01:07:34;;;;;;;0.00;0.00;;;5.90;99.90;;;;;;5053037;28;20181;-66
2022/11/21 01:10:00;;;;;;;0.00;0.00;;;5.90;99.90;;;;;;5054232;28;20169;-66
2022/11/21 01:12:25;;;;;;;0.00;0.00;;;5.90;99.90;;;;;;5053976;28;20196;-66
2022/11/21 01:14:51;;;;;;;0.00;0.00;;;6.00;99.90;;;;;;5054127;28;20227;-66
2022/11/21 01:17:16;;;;;;;0.00;0.00;;;6.00;99.90;;;;;;5054062;28;20181;-66
2022/11/21 01:19:42;;;;;;;0.00;0.00;;;6.00;99.90;;;;;;5054080;28;20181;-66
2022/11/21 01:22:08;;;;;;;0.00;0.00;;;6.10;99.90;;;;;;5053826;28;20320;-65
2022/11/21 01:24:33;;;;;;;0.00;0.00;;;6.10;99.90;;;;;;5053938;28;20342;-66
2022/11/21 01:26:59;;;;;;;0.00;0.00;;;6.10;99.90;;;;;;5053701;28;20177;-66
2022/11/21 01:29:24;;;;;;;0.00;0.00;;;6.10;99.90;;;;;;5053949;28;20188;-66
2022/11/21 01:31:50;;;;;;;0.00;0.00;;;6.10;99.90;;;;;;5053621;28;20176;-66
2022/11/21 01:34:16;;;;;;;0.00;0.00;;;6.10;99.90;;;;;;5053132;28;20174;-66
2022/11/21 01:36:41;;;;;;;0.00;0.00;;;6.10;99.90;;;;;;5053611;28;20177;-66
2022/11/21 01:39:07;;;;;;;0.00;0.00;;;6.10;99.90;;;;;;5054361;28;20541;-66
2022/11/21 01:41:37;;;;;;;0.00;0.00;;;6.00;99.90;;;;;;5053411;28;20251;-66
2022/11/21 01:44:19;;;;;;;0.00;0.00;;;6.00;99.90;;;;;;5053146;28;20224;-66
2022/11/21 01:46:46;;;;;;;0.00;0.00;;;6.00;99.90;;;;;;5053214;28;20193;-66
2022/11/21 01:49:23;;;;;;;0.00;0.00;;;6.00;99.90;;;;;;5051573;28;20479;-66
2022/11/21 01:52:01;;;;;;;0.00;0.00;;;6.00;99.90;;;;;;5047128;28;20173;-66
2022/11/21 01:54:38;;;;;;;0.00;0.00;;;6.00;99.90;;;;;;5052348;28;20185;-66
2022/11/21 01:57:14;;;;;;;0.00;0.00;;;5.90;99.90;;;;;;5052701;28;20189;-66
2022/11/21 01:59:49;;;;;;;0.00;0.00;;;5.90;99.90;;;;;;5051530;28;20182;-66
2022/11/21 02:02:20;;;;;;;0.00;0.00;;;5.90;99.90;;;;;;5052397;28;20177;-66
2022/11/21 02:04:46;;;;;;;0.00;0.00;;;5.90;99.90;;;;;;5052820;28;20205;-66
2022/11/21 02:07:13;;;;;;;0.00;0.00;;;5.80;99.90;;;;;;5052619;28;20200;-66
2022/11/21 02:09:42;;;;;;;0.00;0.00;;;5.90;99.90;;;;;;5051107;28;20191;-66
2022/11/21 02:12:14;;;;;;;0.00;0.00;;;5.90;99.90;;;;;;5052295;28;20235;-66
2022/11/21 02:14:41;;;;;;;0.00;0.00;;;5.80;99.90;;;;;;5052261;28;20200;-66
2022/11/21 02:17:09;;;;;;;0.00;0.00;;;5.80;99.90;;;;;;5041405;28;20216;-66
2022/11/21 02:19:50;;;;;;;0.00;0.00;;;5.80;99.90;;;;;;5052963;28;20185;-66
2022/11/21 02:22:20;;;;;;;0.00;0.00;;;5.80;99.90;;;;;;5049767;28;20184;-66
2022/11/21 02:25:00;;;;;;;0.00;0.00;;;5.80;99.90;;;;;;5052025;28;20228;-66
2022/11/21 02:27:27;;;;;;;0.00;0.00;;;5.80;99.90;;;;;;5051667;28;20173;-66
2022/11/21 02:29:52;;;;;;;0.00;0.00;;;5.80;99.90;;;;;;5051764;28;20181;-66
2022/11/21 02:32:35;;;;;;;0.00;0.00;;;5.80;99.90;;;;;;5051915;28;20549;-67
2022/11/21 02:35:00;;;;;;;0.05;0.05;;;5.80;99.90;;;;;;5052074;28;20217;-66
2022/11/21 02:37:26;;;;;;;0.00;0.00;;;5.90;99.90;;;;;;5050748;28;20232;-66
2022/11/21 02:39:52;;;;;;;0.00;0.00;;;5.90;99.90;;;;;;5052283;28;20182;-66
2022/11/21 02:42:23;;;;;;;0.00;0.00;;;5.90;99.90;;;;;;5051948;28;20208;-66
2022/11/21 02:45:06;;;;;;;0.00;0.00;;;5.90;99.90;;;;;;5051568;28;20202;-66
2022/11/21 02:47:32;;;;;;;0.00;0.00;;;5.90;99.90;;;;;;5052081;28;20177;-66
2022/11/21 02:50:15;;;;;;;0.00;0.00;;;5.90;99.90;;;;;;5051952;28;20191;-66
2022/11/21 02:52:41;;;;;;;0.00;0.00;;;5.90;99.90;;;;;;5052095;28;20254;-66
2022/11/21 02:55:08;;;;;;;0.00;0.00;;;5.90;99.90;;;;;;5052119;28;20530;-66
2022/11/21 02:57:33;;;;;;;0.00;0.00;;;5.90;99.90;;;;;;5040961;28;20190;-66
2022/11/21 02:59:59;;;;;;;0.00;0.00;;;5.80;99.90;;;;;;5049840;28;20182;-66
2022/11/21 03:02:25;;;;;;;0.00;0.00;;;5.90;99.90;;;;;;5051688;28;20177;-66
2022/11/21 03:04:50;;;;;;;0.00;0.00;;;5.90;99.90;;;;;;5051086;28;20197;-66
2022/11/21 03:07:16;;;;;;;0.00;0.00;;;5.90;99.90;;;;;;5048763;28;20185;-66
2022/11/21 03:09:41;;;;;;;0.00;0.00;;;5.90;99.90;;;;;;5049743;28;20182;-66
2022/11/21 03:12:08;;;;;;;0.00;0.00;;;5.90;99.90;;;;;;5051725;28;20184;-66
2022/11/21 03:14:35;;;;;;;0.00;0.00;;;5.90;99.90;;;;;;5051673;28;20688;-66
2022/11/21 03:17:00;;;;;;;0.00;0.00;;;5.90;99.90;;;;;;5051960;28;20201;-66
2022/11/21 03:19:26;;;;;;;0.00;0.00;;;5.90;99.90;;;;;;5052151;28;20282;-66
2022/11/21 03:21:51;;;;;;;0.00;0.00;;;5.90;99.90;;;;;;5051924;28;20177;-66
2022/11/21 03:24:17;;;;;;;0.00;0.00;;;5.90;99.90;;;;;;5051837;28;20188;-66
2022/11/21 03:26:42;;;;;;;0.00;0.00;;;6.00;99.90;;;;;;5051951;28;20185;-66
2022/11/21 03:29:08;;;;;;;0.00;0.00;;;6.00;99.90;;;;;;5050411;28;20192;-66
2022/11/21 03:31:34;;;;;;;0.00;0.00;;;6.00;99.90;;;;;;5051840;28;20188;-66
2022/11/21 03:33:59;;;;;;;0.00;0.00;;;6.00;99.90;;;;;;5051434;28;20173;-66
2022/11/21 03:36:25;;;;;;;0.00;0.00;;;6.00;99.90;;;;;;5050293;28;20185;-66
2022/11/21 03:38:50;;;;;;;0.00;0.00;;;6.00;99.90;;;;;;5051831;28;20185;-66
2022/11/21 03:41:28;;;;;;;0.00;0.00;;;6.00;99.90;;;;;;5048758;28;20276;-66
2022/11/21 03:44:01;;;;;;;0.00;0.00;;;6.10;99.90;;;;;;5049461;28;20632;-66
2022/11/21 03:46:28;;;;;;;0.00;0.00;;;6.00;99.90;;;;;;5051244;28;20224;-66
2022/11/21 03:48:54;;;;;;;0.00;0.00;;;6.00;99.90;;;;;;5050341;28;20178;-66
2022/11/21 03:51:20;;;;;;;0.00;0.00;;;6.00;99.90;;;;;;5051151;28;20188;-66
2022/11/21 03:53:46;;;;;;;0.00;0.00;;;6.00;99.90;;;;;;5051336;28;20209;-66
2022/11/21 03:56:13;;;;;;;0.00;0.00;;;6.00;99.90;;;;;;5050847;28;20185;-66
2022/11/21 03:58:38;;;;;;;0.00;0.00;;;6.10;99.90;;;;;;5050969;28;20710;-66
2022/11/21 04:01:04;;;;;;;0.00;0.00;;;6.10;99.90;;;;;;5050091;28;20185;-66
2022/11/21 04:03:30;;;;;;;0.00;0.00;;;6.10;99.90;;;;;;5051376;28;20192;-66
2022/11/21 04:05:55;;;;;;;0.00;0.00;;;6.10;99.90;;;;;;5051264;28;20673;-66
2022/11/21 04:08:21;;;;;;;0.00;0.00;;;6.10;99.90;;;;;;5051112;28;20196;-66
2022/11/21 04:10:48;;;;;;;0.00;0.00;;;6.10;99.90;;;;;;5051068;28;20182;-66
2022/11/21 04:13:14;;;;;;;0.00;0.00;;;6.10;99.90;;;;;;5050092;28;20256;-66
2022/11/21 04:15:44;;;;;;;0.00;0.00;;;6.00;99.90;;;;;;5050496;28;20228;-66
2022/11/21 04:18:10;;;;;;;0.00;0.00;;;6.10;99.90;;;;;;5051180;28;20185;-66
2022/11/21 04:20:36;;;;;;;0.00;0.00;;;6.00;99.90;;;;;;5051368;28;20251;-66
2022/11/21 04:23:02;;;;;;;0.00;0.00;;;6.00;99.90;;;;;;5053276;28;20656;-66
2022/11/21 04:25:28;;;;;;;0.00;0.00;;;6.10;99.90;;;;;;5054692;28;20737;-66
2022/11/21 04:28:00;;;;;;;0.00;0.00;;;6.10;99.90;;;;;;5054942;28;20182;-64
2022/11/21 04:30:27;;;;;;;0.00;0.00;;;6.00;99.90;;;;;;5054733;28;20645;-63
2022/11/21 04:32:53;;;;;;;0.00;0.00;;;6.10;99.90;;;;;;5054719;28;20188;-64
2022/11/21 04:35:20;;;;;;;0.00;0.00;;;6.10;99.90;;;;;;5054884;28;20213;-64
2022/11/21 04:37:46;;;;;;;0.00;0.00;;;6.10;99.90;;;;;;5053273;28;20667;-66
2022/11/21 04:40:12;;;;;;;0.00;0.00;;;6.10;99.90;;;;;;5042500;28;20280;-64
2022/11/21 04:42:42;;;;;;;0.00;0.00;;;6.10;99.90;;;;;;5054570;28;20219;-64
2022/11/21 04:45:08;;;;;;;0.00;0.00;;;6.10;99.90;;;;;;5055388;28;20700;-64
2022/11/21 04:47:42;;;;;;;0.00;0.00;;;6.20;99.90;;;;;;5065701;28;20178;-64
2022/11/21 04:50:09;;;;;;;0.00;0.00;;;6.20;99.90;;;;;;5054044;28;20177;-63
2022/11/21 04:52:35;;;;;;;0.00;0.00;;;6.20;99.90;;;;;;5067834;28;20177;-63
2022/11/21 04:55:01;;;;;;;0.00;0.00;;;6.10;99.90;;;;;;5070970;28;20200;-64
2022/11/21 04:57:27;;;;;;;0.00;0.00;;;6.10;99.90;;;;;;5054234;28;20181;-65
2022/11/21 04:59:53;;;;;;;0.00;0.00;;;6.10;99.90;;;;;;5053789;28;20208;-64
2022/11/21 05:02:19;;;;;;;0.00;0.00;;;6.10;99.90;;;;;;5054110;28;20652;-63
2022/11/21 05:04:45;;;;;;;0.00;0.00;;;6.10;99.90;;;;;;5053437;28;20225;-65
2022/11/21 05:07:10;;;;;;;0.00;0.00;;;6.10;99.90;;;;;;5052669;28;20177;-63
2022/11/21 05:09:36;;;;;;;0.00;0.00;;;6.10;99.90;;;;;;5053796;28;20257;-64
2022/11/21 05:14:46;;;;;;;0.00;0.00;;;6.00;99.90;;;;;;5053613;28;20197;-65
2022/11/21 05:17:11;;;;;;;0.00;0.00;;;6.00;99.90;;;;;;5054124;28;20178;-64
2022/11/21 05:19:37;;;;;;;0.00;0.00;;;6.00;99.90;;;;;;5053877;28;20649;-63
2022/11/21 05:22:02;;;;;;;0.08;0.08;;;6.10;99.90;;;;;;5053925;28;20197;-63
2022/11/21 05:24:28;;;;;;;0.00;0.00;;;6.00;99.90;;;;;;5054045;28;20181;-62
2022/11/21 05:26:54;;;;;;;0.00;0.00;;;6.10;99.90;;;;;;5053925;28;20185;-63
2022/11/21 05:29:20;;;;;;;0.00;0.00;;;6.10;99.90;;;;;;5054082;28;20238;-63
2022/11/21 05:31:45;;;;;;;0.00;0.00;;;6.00;99.90;;;;;;5052480;28;20217;-62
2022/11/21 05:34:11;;;;;;;0.00;0.00;;;6.00;99.90;;;;;;5053419;28;20180;-62
2022/11/21 05:36:36;;;;;;;0.00;0.00;;;6.00;99.90;;;;;;5053845;28;20215;-62
2022/11/21 05:39:02;;;;;;;0.00;0.00;;;6.00;99.90;;;;;;5053664;28;20174;-62
2022/11/21 05:41:28;;;;;;;0.00;0.00;;;6.00;99.90;;;;;;5053661;28;20633;-63
2022/11/21 05:43:53;;;;;;;0.00;0.00;;;6.00;99.90;;;;;;5053555;28;20177;-63
2022/11/21 05:46:22;;;;;;;0.00;0.00;;;6.00;99.90;;;;;;5052231;28;20223;-65
2022/11/21 05:48:49;;;;;;;0.00;0.00;;;6.00;99.90;;;;;;5052860;28;20177;-67
2022/11/21 05:51:16;;;;;;;0.00;0.00;;;5.90;99.90;;;;;;5053050;28;20537;-67
2022/11/21 05:53:42;;;;;;;0.00;0.00;;;5.90;99.90;;;;;;5053436;28;20707;-66
2022/11/21 05:56:10;;;;;;;0.00;0.00;;;5.90;99.90;;;;;;5053347;28;20177;-66
2022/11/21 05:58:36;;;;;;;0.08;0.08;;;5.90;99.90;;;;;;5053579;28;20629;-67
2022/11/21 06:01:03;;;;;;;0.00;0.00;;;5.90;99.90;;;;;;5053248;28;20183;-67
2022/11/21 06:03:32;;;;;;;0.00;0.00;;;5.90;99.90;;;;;;5053336;28;20533;-67
2022/11/21 06:06:07;;;;;;;0.00;0.00;;;5.90;99.90;;;;;;5053092;28;20241;-67
2022/11/21 06:08:51;;;;;;;0.10;0.10;;;5.80;99.90;;;;;;5053224;28;20219;-66
2022/11/21 06:11:16;;;;;;;0.00;0.00;;;5.80;99.90;;;;;;5053264;28;20201;-66
2022/11/21 06:13:42;;;;;;;0.00;0.00;;;5.80;99.90;;;;;;5052831;28;20695;-66
2022/11/21 06:16:13;;;;;;;0.00;0.00;;;5.80;99.90;;;;;;5053034;28;20267;-66
2022/11/21 06:18:41;;;;;;;0.00;0.00;;;5.80;99.90;;;;;;5053106;28;20189;-66
2022/11/21 06:21:08;;;;;;;0.00;0.00;;;5.80;99.90;;;;;;5052946;28;20189;-66
2022/11/21 06:23:34;;;;;;;0.00;0.00;;;5.80;99.90;;;;;;5053037;28;20184;-66
2022/11/21 06:26:02;;;;;;;0.00;0.00;;;5.80;99.90;;;;;;5051409;28;20217;-66
2022/11/21 06:28:33;;;;;;;0.00;0.00;;;5.70;99.90;;;;;;5052843;28;20633;-66
2022/11/21 06:31:18;;;;;;;0.00;0.00;;;5.80;99.90;;;;;;5052684;28;20170;-66
2022/11/21 06:33:44;;;;;;;0.00;0.00;;;5.80;99.90;;;;;;5052950;28;20632;-66
2022/11/21 06:36:12;;;;;;;0.00;0.00;;;5.80;99.90;;;;;;5052704;28;20181;-66
2022/11/21 06:38:38;;;;;;;0.00;0.00;;;5.80;99.90;;;;;;5052749;28;20510;-66
2022/11/21 06:41:05;;;;;;;0.00;0.00;;;5.80;99.90;;;;;;5052512;28;20632;-66
2022/11/21 06:43:31;;;;;;;0.00;0.00;;;5.80;99.90;;;;;;5052890;28;20173;-66
2022/11/21 06:45:57;;;;;;;0.17;0.17;;;5.80;99.90;;;;;;5051560;28;20227;-66
2022/11/21 06:48:23;;;;;;;0.00;0.00;;;5.80;99.90;;;;;;5052844;28;20211;-66
2022/11/21 06:50:48;;;;;;;0.00;0.00;;;5.80;99.90;;;;;;5052424;28;20201;-66
2022/11/21 06:53:14;;;;;;;0.00;0.00;;;5.80;99.90;;;;;;5051180;28;20565;-66
2022/11/21 06:55:39;;;;;;;0.00;0.00;;;5.80;99.90;;;;;;5052316;28;20174;-66
2022/11/21 06:58:05;;;;;;;0.00;0.00;;;5.90;99.90;;;;;;5052311;28;20174;-67
2022/11/21 07:00:30;;;;;;;0.00;0.00;;;5.90;99.90;;;;;;5051090;28;20182;-66
2022/11/21 07:03:00;;;;;;;0.00;0.00;;;5.90;99.90;;;;;;5050934;28;20190;-66
2022/11/21 07:05:26;;;;;;;0.00;0.00;;;5.90;99.90;;;;;;5052161;28;20680;-66
2022/11/21 07:08:00;;;;;;;0.13;0.13;;;6.00;99.90;;;;;;5052141;28;20188;-66
2022/11/21 07:10:26;;;;;;;0.00;0.00;;;6.10;99.90;;;;;;5052186;28;20181;-66
2022/11/21 07:15:40;;;;;;;0.00;0.00;;;6.00;99.90;;;;;;5052281;28;20208;-66
2022/11/21 07:18:06;;;;;;;0.00;0.00;;;6.00;99.90;;;;;;5051940;28;20633;-66
2022/11/21 07:20:31;;;;;;;0.00;0.00;;;6.00;99.90;;;;;;5052032;28;20178;-66
2022/11/21 07:22:57;;;;;;;0.00;0.00;;;6.10;99.90;;;;;;5051952;28;20176;-66
2022/11/21 07:25:22;;;;;;;0.00;0.00;;;6.10;99.90;;;;;;5051833;28;20216;-66
2022/11/21 07:27:48;;;;;;;0.00;0.00;;;6.10;99.90;;;;;;5052045;28;20173;-66
2022/11/21 07:30:14;;;;;;;0.00;0.00;;;6.10;99.90;;;;;;5051924;28;20621;-66
2022/11/21 07:32:39;;;;;;;0.00;0.00;;;6.10;99.90;;;;;;5051977;28;20177;-66
2022/11/21 07:35:06;;;;;;;0.00;0.00;;;6.10;99.90;;;;;;5050717;28;20173;-66
2022/11/21 07:37:31;;;;;;;0.10;0.10;;;6.10;99.90;;;;;;5050547;28;20188;-66
2022/11/21 07:39:57;;;;;;;0.10;0.10;;;6.10;99.90;;;;;;5051778;28;20169;-66
2022/11/21 07:42:22;;;;;;;0.00;0.00;;;6.00;99.90;;;;;;5051695;28;20243;-66
2022/11/21 07:44:48;;;;;;;0.00;0.00;;;6.00;99.90;;;;;;5051718;28;20205;-66
2022/11/21 07:47:13;;;;;;;0.00;0.00;;;6.00;99.90;;;;;;5051819;28;20663;-66
2022/11/21 07:49:39;;;;;;;0.00;0.00;;;6.10;99.90;;;;;;5050610;28;20549;-66
2022/11/21 07:52:04;;;;;;;0.00;0.00;;;6.10;99.90;;;;;;5051816;28;20212;-66
2022/11/21 07:54:30;;;;;;;0.00;0.00;;;6.10;99.90;;;;;;5051900;28;20169;-66
2022/11/21 07:56:55;;;;;;;0.00;0.00;;;6.10;99.90;;;;;;5054179;28;20317;-66
2022/11/21 07:59:21;;;;;;;0.00;0.00;;;6.10;99.90;;;;;;5055632;28;20567;-66
2022/11/21 08:01:47;;;;;;;0.00;0.00;;;6.20;99.90;;;;;;5055652;28;20178;-66
2022/11/21 08:04:12;;;;;;;0.00;0.00;;;6.20;99.90;;;;;;5055655;28;20306;-66
2022/11/21 08:06:38;;;;;;;0.00;0.00;;;6.20;99.90;;;;;;5055467;28;20692;-66
2022/11/21 08:09:03;;;;;;;0.00;0.00;;;6.30;99.90;;;;;;5053981;28;20250;-66
2022/11/21 08:11:29;;;;;;;0.00;0.00;;;6.30;99.90;;;;;;5055454;28;20255;-66
2022/11/21 08:13:57;;;;;;;0.00;0.00;;;6.30;99.90;;;;;;5055104;28;20225;-66
2022/11/21 08:16:26;;;;;;;2.55;0.20;;;6.30;99.90;;;;;;5053734;28;20185;-66
2022/11/21 08:18:52;;;;;;;0.00;0.00;;;6.40;99.90;;;;;;5055069;28;20571;-66
2022/11/21 08:21:17;;;;;;;0.00;0.00;;;6.40;99.90;;;;;;5055212;28;20172;-66
2022/11/21 08:23:43;;;;;;;0.00;0.00;;;6.50;99.90;;;;;;5055169;28;20174;-68
2022/11/21 08:26:09;;;;;;;0.00;0.00;;;6.60;99.90;;;;;;5054960;28;20576;-68
2022/11/21 08:28:35;;;;;;;0.00;0.00;;;6.70;99.90;;;;;;5055237;28;20522;-67
2022/11/21 08:31:04;;;;;;;0.00;0.00;;;6.80;99.90;;;;;;5055008;28;20185;-67
2022/11/21 08:33:30;;;;;;;0.00;0.00;;;7.00;99.90;;;;;;5054969;28;20172;-67
2022/11/21 08:35:56;;;;;;;0.00;0.00;;;7.10;99.90;;;;;;5054942;28;20181;-66
2022/11/21 08:38:22;;;;;;;0.00;0.00;;;7.20;99.90;;;;;;5054974;28;20181;-66
2022/11/21 08:42:01;;;;;;;0.00;0.00;;;7.20;99.90;;;;;;5054827;28;20538;-67
2022/11/21 08:43:33;;;;;;;0.00;0.00;;;7.30;99.90;;;;;;5054802;28;20178;-67
2022/11/21 08:45:58;;;;;;;0.00;0.00;;;7.30;99.90;;;;;;5054696;28;20342;-67
2022/11/21 08:48:24;;;;;;;0.00;0.00;;;7.30;99.90;;;;;;5054662;28;20364;-66
2022/11/21 08:50:49;;;;;;;0.00;0.00;;;7.40;99.90;;;;;;5054813;28;20173;-66
2022/11/21 08:53:15;;;;;;;0.00;0.00;;;7.40;99.90;;;;;;5054692;28;20524;-66
2022/11/21 08:55:40;;;;;;;0.00;0.00;;;7.40;99.90;;;;;;5054560;28;20184;-66
2022/11/21 08:58:05;;;;;;;0.00;0.00;;;7.50;99.90;;;;;;5054625;28;20253;-67
2022/11/21 09:00:31;;;;;;;0.00;0.00;;;7.60;99.90;;;;;;5054640;28;20178;-67
2022/11/21 09:02:57;;;;;;;0.10;0.03;;;7.70;99.90;;;;;;5054491;28;20181;-67
2022/11/21 09:05:22;;;;;;;0.08;0.08;;;7.70;99.90;;;;;;5054442;28;20211;-67
2022/11/21 09:07:54;;;;;;;0.00;0.00;;;7.80;99.90;;;;;;5053541;28;20521;-67
2022/11/21 09:10:20;;;;;;;0.00;0.00;;;7.90;99.90;;;;;;5054304;28;20216;-67
2022/11/21 09:12:45;;;;;;;0.00;0.00;;;8.00;99.90;;;;;;5052984;28;20241;-67
2022/11/21 09:18:02;;;;;;;0.00;0.00;;;8.30;99.90;;;;;;5054268;28;20185;-67
2022/11/21 09:20:28;;;;;;;0.00;0.00;;;8.40;99.90;;;;;;5054243;28;20526;-67
2022/11/21 09:22:53;;;;;;;0.00;0.00;;;8.40;99.90;;;;;;5054045;28;20174;-67
2022/11/21 09:25:19;;;;;;;0.10;0.10;;;8.30;99.90;;;;;;5054110;28;20220;-67
2022/11/21 09:27:44;;;;;;;0.00;0.00;;;8.30;99.90;;;;;;5052773;28;20173;-67
2022/11/21 09:30:10;;;;;;;0.00;0.00;;;8.30;99.90;;;;;;5054003;28;20174;-67
2022/11/21 09:32:36;;;;;;;0.00;0.00;;;8.20;99.90;;;;;;5054110;28;20582;-67
2022/11/21 09:35:02;;;;;;;0.00;0.00;;;8.30;99.90;;;;;;5053779;28;20173;-67
2022/11/21 09:37:27;;;;;;;0.00;0.00;;;8.40;99.90;;;;;;5054015;28;20264;-67
2022/11/21 09:39:53;;;;;;;0.17;0.17;;;8.50;99.90;;;;;;5053715;28;20532;-67
2022/11/21 09:42:35;;;;;;;0.00;0.00;;;8.40;99.90;;;;;;5053904;28;20215;-67
2022/11/21 09:45:15;;;;;;;0.00;0.00;;;8.30;99.90;;;;;;5053580;28;20204;-67
2022/11/21 09:47:44;;;;;;;0.00;0.00;;;8.20;99.90;;;;;;5053527;28;20181;-67
2022/11/21 09:50:13;;;;;;;0.00;0.00;;;8.20;99.90;;;;;;5052368;28;20209;-67
2022/11/21 09:52:46;;;;;;;0.00;0.00;;;8.20;99.90;;;;;;5053664;28;20177;-67
2022/11/21 09:55:27;;;;;;;0.00;0.00;;;8.20;99.90;;;;;;5052231;28;20181;-67
2022/11/21 09:57:54;;;;;;;0.08;0.08;;;8.20;99.90;;;;;;5053437;28;20181;-67
2022/11/21 10:00:22;;;;;;;0.25;0.25;;;8.20;99.90;;;;;;5053375;28;20173;-67
2022/11/21 10:02:49;;;;;;;0.00;0.00;;;8.30;99.90;;;;;;5053395;28;20173;-67
2022/11/21 10:05:15;;;;;;;0.00;0.00;;;8.40;99.90;;;;;;5053385;28;20219;-67
2022/11/21 10:07:42;;;;;;;0.00;0.00;;;8.70;99.90;;;;;;5053189;28;20182;-67
2022/11/21 10:10:17;;;;;;;0.00;0.00;;;8.90;99.90;;;;;;5053199;28;20170;-67
2022/11/21 10:12:42;;;;;;;0.00;0.00;;;9.20;99.90;;;;;;5052930;28;20307;-67
2022/11/21 10:15:32;;;;;;;0.00;0.00;;;9.30;99.90;;;;;;5053143;28;20305;-67
2022/11/21 10:18:31;;;;;;;0.00;0.00;;;9.40;99.90;;;;;;5053109;28;20186;-67
2022/11/21 10:21:15;;;;;;;0.00;0.00;;;9.50;99.90;;;;;;5052979;28;20197;-67
2022/11/21 10:24:01;;;;;;;0.00;0.00;;;9.50;99.90;;;;;;5052982;28;20184;-67
2022/11/21 10:26:46;;;;;;;0.00;0.00;;;9.50;99.90;;;;;;5052942;28;20262;-67
2022/11/21 10:29:24;;;;;;;0.00;0.00;;;9.50;99.90;;;;;;5052853;28;20169;-67
2022/11/21 10:31:53;;;;;;;0.00;0.00;;;9.40;99.90;;;;;;5052770;28;20181;-67
2022/11/21 10:34:24;;;;;;;0.00;0.00;;;9.30;99.90;;;;;;5052880;28;20173;-67
2022/11/21 10:36:57;;;;;;;0.00;0.00;;;9.10;99.90;;;;;;5051454;28;20170;-67
2022/11/21 10:39:49;;;;;;;0.00;0.00;;;9.10;99.90;;;;;;5052665;28;20181;-67
2022/11/21 10:42:37;;;;;;;0.00;0.00;;;9.20;99.90;;;;;;5049898;28;20193;-67
2022/11/21 10:45:15;;;;;;;0.00;0.00;;;9.20;99.90;;;;;;5051086;28;20201;-67
2022/11/21 10:47:43;;;;;;;0.00;0.00;;;9.00;99.90;;;;;;5052578;28;20181;-67
2022/11/21 10:50:08;;;;;;;0.00;0.00;;;9.00;99.90;;;;;;5051210;28;20184;-67
2022/11/21 10:52:41;;;;;;;0.00;0.00;;;8.90;99.90;;;;;;5052496;28;20253;-67
2022/11/21 10:55:09;;;;;;;0.00;0.00;;;8.80;99.90;;;;;;5052421;28;20182;-67
2022/11/21 10:57:49;;;;;;;0.00;0.00;;;8.90;99.90;;;;;;5052460;28;20165;-67
2022/11/21 11:00:21;;;;;;;0.00;0.00;;;9.10;99.90;;;;;;5052272;28;20534;-67
2022/11/21 11:02:56;;;;;;;0.00;0.00;;;9.20;99.90;;;;;;5052316;28;20182;-67
2022/11/21 11:05:24;;;;;;;0.00;0.00;;;9.20;99.90;;;;;;5052204;28;20216;-67
2022/11/21 11:08:04;;;;;;;0.00;0.00;;;9.10;99.90;;;;;;5052166;28;20260;-67
2022/11/21 11:10:35;;;;;;;0.00;0.00;;;9.00;99.90;;;;;;5052271;28;20185;-66
2022/11/21 11:16:08;;;;;;;0.00;0.00;;;9.30;99.90;;;;;;5052321;28;20239;-67
2022/11/21 11:18:54;;;;;;;0.00;0.00;;;9.60;99.90;;;;;;5052259;28;20262;-67
2022/11/21 11:21:42;;;;;;;0.00;0.00;;;9.70;99.90;;;;;;5052082;28;20261;-67
2022/11/21 11:24:08;;;;;;;0.00;0.00;;;9.80;99.90;;;;;;5052069;28;20561;-67
2022/11/21 11:26:48;;;;;;;0.00;0.00;;;10.00;99.90;;;;;;5051880;28;20221;-67
2022/11/21 11:29:18;;;;;;;0.00;0.00;;;10.20;99.90;;;;;;5052158;28;20272;-67
2022/11/21 11:31:50;;;;;;;0.00;0.00;;;10.30;99.90;;;;;;5055889;28;20185;-67
2022/11/21 11:34:16;;;;;;;0.00;0.00;;;10.50;99.90;;;;;;5058579;28;20235;-67
2022/11/21 11:37:02;;;;;;;0.00;0.00;;;10.70;99.90;;;;;;5058545;28;20242;-67
2022/11/21 11:39:37;;;;;;;0.00;0.00;;;10.80;99.90;;;;;;5058593;28;20169;-66
2022/11/21 11:48:09;;;;;;;0.00;0.00;;;11.10;99.90;;;;;;5058466;28;20192;-66
2022/11/21 11:50:54;;;;;;;0.00;0.00;;;11.00;99.90;;;;;;5058538;28;20251;-66
2022/11/21 11:53:21;;;;;;;0.28;0.28;;;10.90;99.90;;;;;;5058424;28;20180;-66
2022/11/21 11:56:11;;;;;;;0.00;0.00;;;10.70;99.90;;;;;;5057308;28;20182;-66
2022/11/21 11:58:59;;;;;;;0.00;0.00;;;10.60;99.90;;;;;;5058474;28;20173;-67
2022/11/21 12:01:56;;;;;;;0.08;0.08;;;10.50;99.90;;;;;;5058433;28;20201;-66
2022/11/21 12:04:24;;;;;;;0.00;0.00;;;10.50;99.90;;;;;;5057844;28;20185;-67
2022/11/21 12:07:16;;;;;;;0.00;0.00;;;10.50;99.90;;;;;;5058255;28;20213;-67
2022/11/21 12:10:13;;;;;;;0.00;0.00;;;10.50;99.90;;;;;;5058087;28;20653;-67
2022/11/21 12:12:47;;;;;;;0.10;0.10;;;10.60;99.90;;;;;;5058147;28;20232;-67
2022/11/21 12:18:20;;;;;;;0.00;0.00;;;10.80;99.90;;;;;;5058189;28;20209;-67
2022/11/21 12:20:58;;;;;;;0.00;0.00;;;10.80;99.90;;;;;;5058222;28;20165;-66
2022/11/21 12:23:27;;;;;;;0.00;0.00;;;10.80;99.90;;;;;;5058118;28;20589;-66
2022/11/21 12:26:11;;;;;;;0.00;0.00;;;10.70;99.90;;;;;;5058075;28;20676;-66
2022/11/21 12:29:12;;;;;;;0.00;0.00;;;10.70;99.90;;;;;;5058242;28;20176;-65
2022/11/21 12:31:52;;;;;;;0.00;0.00;;;10.60;99.90;;;;;;5058289;28;20227;-65
2022/11/21 12:34:25;;;;;;;0.00;0.00;;;10.50;99.90;;;;;;5058187;28;20249;-66
2022/11/21 12:37:22;;;;;;;0.00;0.00;;;10.40;99.90;;;;;;5058234;28;20636;-65
2022/11/21 12:39:59;;;;;;;0.00;0.00;;;10.20;99.90;;;;;;5058238;28;20219;-65
2022/11/21 12:42:59;;;;;;;0.00;0.00;;;10.10;99.90;;;;;;5056216;28;20555;-66
2022/11/21 12:45:37;;;;;;;0.00;0.00;;;10.00;99.90;;;;;;5054923;28;20257;-66
2022/11/21 12:54:37;;;;;;;0.00;0.00;;;9.90;99.90;;;;;;5054817;28;20268;-66
2022/11/21 12:57:14;;;;;;;0.00;0.00;;;9.90;99.90;;;;;;5053346;28;20181;-66
2022/11/21 13:00:16;;;;;;;0.00;0.00;;;10.00;99.90;;;;;;5054545;28;20216;-66
2022/11/21 13:02:42;;;;;;;0.00;0.00;;;10.20;99.90;;;;;;5054531;28;20173;-67
2022/11/21 13:05:12;;;;;;;0.00;0.00;;;10.20;99.90;;;;;;5054430;28;20682;-67
2022/11/21 13:07:39;;;;;;;0.00;0.00;;;10.30;99.90;;;;;;5054603;28;20182;-67
2022/11/21 13:10:12;;;;;;;0.00;0.00;;;10.20;99.90;;;;;;5054410;28;20178;-67
2022/11/21 13:12:44;;;;;;;0.00;0.00;;;10.10;99.90;;;;;;5053060;28;20232;-67
2022/11/21 13:15:16;;;;;;;0.00;0.00;;;10.00;99.90;;;;;;5054348;28;20178;-67
2022/11/21 13:17:57;;;;;;;0.00;0.00;;;10.00;99.90;;;;;;5054220;28;20264;-67
2022/11/21 13:20:32;;;;;;;0.00;0.00;;;10.00;99.90;;;;;;5052803;28;20174;-67
2022/11/21 13:23:05;;;;;;;0.00;0.00;;;9.90;99.90;;;;;;5054171;28;20207;-67
2022/11/21 13:25:30;;;;;;;0.00;0.00;;;9.90;99.90;;;;;;5054111;28;20209;-67
2022/11/21 13:28:16;;;;;;;0.00;0.00;;;9.90;99.90;;;;;;5053946;28;20202;-67
2022/11/21 13:30:59;;;;;;;0.00;0.00;;;9.90;99.90;;;;;;5053882;28;20180;-67
2022/11/21 13:33:34;;;;;;;0.00;0.00;;;10.00;99.90;;;;;;5052746;28;20179;-67
2022/11/21 13:36:12;;;;;;;0.00;0.00;;;10.10;99.90;;;;;;5053829;28;20668;-67